aviador You're here:

KFDW Decoded Metar

FAIRFIELD COUNTY AIRPORT in SC, USA
Report Time2017-08-16 19:15:00
UTC Time2017-08-16 19:27:07
Flight Rules vfr VFR
Wind210° at 03 kt
W.Decomp.*RWY 22: 3.0 kt HW 0.2 kt LCW
W.Rank210° ranks 3
Current wind is below 210° avg. (5.4)
Visibility9999 m
Phenomena:N/A
Clouds:Scattered 050 Hf
Expected CloudBase > 6,000 ft AGL from Temp-Dew spread
CeilingNone
Temp35°C (ISA +21)
Dew Point20°C (41% RH)
Heat Index37.5°C
QNH1016 hPa
Density Alt3,186 ft
Elevation577 ft
Report Wrong Elevation
Raw Report
METAR KFDW 161915Z AUTO 21003KT 10SM SCT050 35/20 A3001 RMK AO1=

Extra information for KFDW:More info

Metar Taf Metar & Taf Last 4 Metars F.Rules Stats Wind Profile Meteogram Temp Stats Airport Information Weather charts Add Link Nearby VenuesMetar ALERT Operation Metar Decoded Social comments

AIRNAV info for KFDW